createdAt,value
2018-03-29T00:01:47.968Z,4.66
2018-03-29T00:04:15.426Z,4.40
2018-03-29T00:06:42.814Z,4.37
2018-03-29T00:09:10.236Z,4.02
2018-03-29T00:11:37.718Z,3.78
2018-03-29T00:14:05.122Z,3.70
2018-03-29T00:16:32.499Z,3.61
2018-03-29T00:18:59.898Z,3.58
2018-03-29T00:21:27.286Z,3.36
2018-03-29T00:23:54.685Z,3.40
2018-03-29T00:26:22.144Z,3.49
2018-03-29T00:28:49.547Z,3.41
2018-03-29T00:31:16.935Z,3.47
2018-03-29T00:33:44.419Z,3.29
2018-03-29T00:36:11.878Z,3.30
2018-03-29T00:38:39.638Z,3.07
2018-03-29T00:41:07.025Z,2.98
2018-03-29T00:43:34.451Z,3.15
2018-03-29T00:46:01.847Z,3.06
2018-03-29T00:48:29.239Z,3.05
2018-03-29T00:50:56.633Z,2.91
2018-03-29T00:53:35.847Z,2.80
2018-03-29T00:56:03.234Z,2.53
2018-03-29T00:58:31.547Z,2.59
2018-03-29T01:00:58.939Z,2.54
2018-03-29T01:03:26.356Z,2.51
2018-03-29T01:05:53.747Z,2.31
2018-03-29T01:08:21.127Z,2.30
2018-03-29T01:10:48.525Z,2.36
2018-03-29T01:13:15.914Z,2.44
2018-03-29T01:15:43.301Z,2.46
2018-03-29T01:18:10.697Z,2.38
2018-03-29T01:20:38.179Z,2.54
2018-03-29T01:23:05.566Z,2.34
2018-03-29T01:25:32.987Z,2.40
2018-03-29T01:28:00.375Z,2.33
2018-03-29T01:30:27.797Z,2.14
2018-03-29T01:32:55.184Z,2.15
2018-03-29T01:35:22.615Z,2.10
2018-03-29T01:37:50.081Z,2.13
2018-03-29T01:40:17.463Z,2.04
2018-03-29T01:42:44.990Z,2.05
2018-03-29T01:45:12.407Z,2.08
2018-03-29T01:47:39.790Z,2.15
2018-03-29T01:50:07.182Z,2.11
2018-03-29T01:52:34.563Z,2.05
2018-03-29T01:55:01.955Z,2.19
2018-03-29T01:57:29.344Z,2.16
2018-03-29T01:59:56.732Z,2.13
2018-03-29T02:02:24.123Z,2.15
2018-03-29T02:04:51.610Z,2.20
2018-03-29T02:07:18.998Z,2.12
2018-03-29T02:09:46.433Z,2.20
2018-03-29T02:12:13.823Z,2.22
2018-03-29T02:14:41.231Z,2.24
2018-03-29T02:17:08.687Z,2.34
2018-03-29T02:19:36.079Z,2.43
2018-03-29T02:22:03.512Z,2.37
2018-03-29T02:24:30.970Z,2.48
2018-03-29T02:26:58.406Z,2.49
2018-03-29T02:29:25.794Z,2.44
2018-03-29T02:31:53.192Z,2.42
2018-03-29T02:34:20.570Z,2.45
2018-03-29T02:36:48.035Z,2.44
2018-03-29T02:39:15.410Z,2.53
2018-03-29T02:41:42.813Z,2.57
2018-03-29T02:44:10.295Z,2.71
2018-03-29T02:46:37.693Z,2.71
2018-03-29T02:49:05.108Z,2.74
2018-03-29T02:51:32.504Z,2.81
2018-03-29T02:53:59.888Z,2.84
2018-03-29T02:56:27.268Z,2.87
2018-03-29T02:58:54.747Z,2.83
2018-03-29T03:01:22.176Z,2.96
2018-03-29T03:03:49.560Z,2.96
2018-03-29T03:06:16.954Z,3.06
2018-03-29T03:11:14.395Z,2.96
2018-03-29T03:13:41.786Z,3.00
2018-03-29T03:16:09.423Z,3.11
2018-03-29T03:18:36.899Z,3.07
2018-03-29T03:21:04.274Z,3.14
2018-03-29T03:23:31.658Z,3.14
2018-03-29T03:25:59.063Z,3.19
2018-03-29T03:28:26.519Z,3.14
2018-03-29T03:30:53.920Z,3.22
2018-03-29T03:33:21.335Z,3.18
2018-03-29T03:35:48.702Z,3.24
2018-03-29T03:38:16.091Z,3.22
2018-03-29T03:40:43.487Z,3.26
2018-03-29T03:43:10.874Z,3.19
2018-03-29T03:45:39.020Z,3.23
2018-03-29T03:48:06.414Z,3.39
2018-03-29T03:50:33.798Z,3.29
2018-03-29T03:53:01.185Z,3.40
2018-03-29T03:55:28.558Z,3.43
2018-03-29T03:57:55.946Z,3.40
2018-03-29T04:00:23.352Z,3.36
2018-03-29T04:02:50.729Z,3.34
2018-03-29T04:05:18.163Z,3.29
2018-03-29T04:07:45.617Z,3.36
2018-03-29T04:10:13.020Z,3.21
2018-03-29T04:12:40.418Z,3.21
2018-03-29T04:15:07.799Z,3.28
2018-03-29T04:17:35.190Z,3.36
2018-03-29T04:20:02.590Z,3.33
2018-03-29T04:22:29.979Z,3.37
2018-03-29T04:24:57.358Z,3.34
2018-03-29T04:27:24.846Z,3.32
2018-03-29T04:29:52.301Z,3.33
2018-03-29T04:32:20.590Z,3.51
2018-03-29T04:34:48.046Z,3.45
2018-03-29T04:37:15.421Z,3.46
2018-03-29T04:39:42.839Z,3.52
2018-03-29T04:42:10.222Z,3.38
2018-03-29T04:44:37.602Z,3.33
2018-03-29T04:47:04.980Z,3.33
2018-03-29T04:49:32.358Z,3.42
2018-03-29T04:51:59.737Z,3.41
2018-03-29T04:54:27.198Z,3.53
2018-03-29T04:56:54.646Z,3.42
2018-03-29T04:59:22.102Z,3.44
2018-03-29T05:01:49.563Z,3.42
2018-03-29T05:04:16.953Z,3.52
2018-03-29T05:06:44.326Z,3.61
2018-03-29T05:09:11.722Z,3.70
2018-03-29T05:11:39.101Z,3.62
2018-03-29T05:14:06.546Z,3.65
2018-03-29T05:16:34.000Z,3.64
2018-03-29T05:19:01.455Z,3.63
2018-03-29T05:21:28.921Z,3.69
2018-03-29T05:23:56.341Z,3.67
2018-03-29T05:26:23.931Z,3.76
2018-03-29T05:28:51.406Z,3.64
2018-03-29T05:31:18.806Z,3.63
2018-03-29T05:33:46.219Z,3.66
2018-03-29T05:36:13.675Z,3.76
2018-03-29T05:38:41.066Z,3.77
2018-03-29T05:41:08.453Z,3.62
2018-03-29T05:43:35.831Z,3.65
2018-03-29T05:46:03.222Z,3.62
2018-03-29T05:48:30.606Z,3.70
2018-03-29T05:50:58.007Z,3.64
2018-03-29T05:53:25.394Z,3.69
2018-03-29T05:55:52.814Z,3.66
2018-03-29T05:58:20.202Z,3.65
2018-03-29T06:00:47.597Z,3.78
2018-03-29T06:03:14.992Z,3.76
2018-03-29T06:05:42.439Z,3.72
2018-03-29T06:08:09.822Z,3.63
2018-03-29T06:10:37.242Z,3.72
2018-03-29T06:13:04.626Z,3.85
2018-03-29T06:15:32.790Z,3.95
2018-03-29T06:18:01.074Z,3.86
2018-03-29T06:20:28.450Z,3.98
2018-03-29T06:22:55.858Z,3.93
2018-03-29T06:25:23.246Z,3.88
2018-03-29T06:27:50.639Z,3.88
2018-03-29T06:30:18.028Z,4.06
2018-03-29T06:32:45.419Z,4.00
2018-03-29T06:35:12.835Z,4.16
2018-03-29T06:37:40.223Z,4.21
2018-03-29T06:40:07.616Z,4.14
2018-03-29T06:42:34.999Z,4.12
2018-03-29T06:45:02.380Z,4.07
2018-03-29T06:47:29.763Z,4.13
2018-03-29T06:49:57.162Z,4.25
2018-03-29T06:52:24.566Z,4.30
2018-03-29T06:54:51.967Z,4.60
2018-03-29T06:57:19.431Z,4.65
2018-03-29T06:59:46.812Z,4.71
2018-03-29T07:02:14.257Z,4.64
2018-03-29T07:04:41.692Z,4.85
2018-03-29T07:07:09.152Z,4.94
2018-03-29T07:09:36.527Z,4.98
2018-03-29T07:12:03.925Z,5.17
2018-03-29T07:14:31.300Z,5.02
2018-03-29T07:16:58.771Z,5.25
2018-03-29T07:19:26.234Z,5.51
2018-03-29T07:21:53.678Z,5.69
2018-03-29T07:24:21.055Z,5.74
2018-03-29T07:26:48.459Z,5.87
2018-03-29T07:29:15.835Z,6.53
2018-03-29T07:31:43.222Z,7.52
2018-03-29T07:34:10.633Z,7.79
2018-03-29T07:36:38.057Z,7.22
2018-03-29T07:39:05.398Z,6.96
2018-03-29T07:41:32.826Z,6.70
2018-03-29T07:44:00.282Z,6.40
2018-03-29T07:46:27.666Z,6.28
2018-03-29T07:48:55.056Z,6.15
2018-03-29T07:51:22.432Z,6.20
2018-03-29T07:53:49.822Z,6.39
2018-03-29T07:56:17.211Z,6.52
2018-03-29T07:58:44.598Z,6.60
2018-03-29T08:01:12.066Z,6.70
2018-03-29T08:03:39.454Z,6.88
2018-03-29T08:06:06.880Z,6.88
2018-03-29T08:08:34.229Z,7.04
2018-03-29T08:11:01.619Z,7.23
2018-03-29T08:13:29.034Z,7.16
2018-03-29T08:15:56.416Z,7.12
2018-03-29T08:18:23.798Z,7.26
2018-03-29T08:20:51.210Z,7.10
2018-03-29T08:23:18.592Z,6.94
2018-03-29T08:25:45.970Z,7.11
2018-03-29T08:28:13.358Z,8.20
2018-03-29T08:30:40.828Z,8.75
2018-03-29T08:33:08.241Z,8.96
2018-03-29T08:35:35.641Z,8.98
2018-03-29T08:38:03.099Z,10.16
2018-03-29T08:40:30.490Z,10.82
2018-03-29T08:42:57.922Z,11.04
2018-03-29T08:45:25.307Z,11.04
2018-03-29T08:47:52.863Z,9.67
2018-03-29T08:50:20.310Z,8.29
2018-03-29T08:52:47.730Z,8.18
2018-03-29T08:55:15.118Z,7.82
2018-03-29T08:57:42.507Z,7.73
2018-03-29T09:00:09.902Z,7.77
2018-03-29T09:02:37.274Z,7.57
2018-03-29T09:05:04.659Z,7.82
2018-03-29T09:07:32.067Z,7.88
2018-03-29T09:09:59.454Z,7.80
2018-03-29T09:12:26.832Z,8.26
2018-03-29T09:14:54.214Z,8.36
2018-03-29T09:17:21.683Z,8.55
2018-03-29T09:19:49.094Z,8.67
2018-03-29T09:22:16.471Z,8.79
2018-03-29T09:24:43.954Z,9.26
2018-03-29T09:27:11.336Z,9.17
2018-03-29T09:29:38.759Z,9.09
2018-03-29T09:32:06.218Z,8.64
2018-03-29T09:34:33.675Z,8.46
2018-03-29T09:37:01.126Z,7.83
2018-03-29T09:39:28.587Z,7.82
2018-03-29T09:41:56.039Z,7.53
2018-03-29T09:44:23.418Z,7.37
2018-03-29T09:46:50.807Z,7.03
2018-03-29T09:49:18.182Z,6.99
2018-03-29T09:51:45.570Z,6.98
2018-03-29T09:54:13.026Z,6.75
2018-03-29T09:56:40.410Z,7.07
2018-03-29T09:59:08.690Z,6.95
2018-03-29T10:01:36.092Z,7.07
2018-03-29T10:04:09.177Z,6.95
2018-03-29T10:06:41.504Z,7.16
2018-03-29T10:09:08.887Z,7.05
2018-03-29T10:11:36.278Z,7.25
2018-03-29T10:14:03.654Z,7.29
2018-03-29T10:16:31.039Z,7.36
2018-03-29T10:18:58.427Z,7.31
2018-03-29T10:21:25.835Z,7.18
2018-03-29T10:23:53.215Z,7.22
2018-03-29T10:26:20.599Z,7.32
2018-03-29T10:28:47.978Z,7.15
2018-03-29T10:31:15.391Z,7.22
2018-03-29T10:33:42.775Z,7.39
2018-03-29T10:36:10.164Z,7.48
2018-03-29T10:38:37.599Z,7.62
2018-03-29T10:41:04.970Z,7.85
2018-03-29T10:43:32.358Z,7.51
2018-03-29T10:45:59.747Z,7.46
2018-03-29T10:48:27.157Z,7.57
2018-03-29T10:50:54.522Z,8.11
2018-03-29T10:53:21.914Z,8.61
2018-03-29T10:55:49.371Z,8.91
2018-03-29T10:58:16.763Z,8.94
2018-03-29T11:00:44.142Z,9.13
2018-03-29T11:03:11.646Z,8.58
2018-03-29T11:05:38.987Z,8.40
2018-03-29T11:08:06.375Z,8.28
2018-03-29T11:10:33.754Z,7.91
2018-03-29T11:13:01.140Z,7.63
2018-03-29T11:15:28.614Z,7.46
2018-03-29T11:17:56.011Z,7.77
2018-03-29T11:20:23.422Z,8.21
2018-03-29T11:22:50.794Z,8.09
2018-03-29T11:25:18.239Z,7.94
2018-03-29T11:27:45.618Z,8.13
2018-03-29T11:30:13.008Z,8.04
2018-03-29T11:32:40.383Z,7.86
2018-03-29T11:35:07.854Z,7.88
2018-03-29T11:37:35.240Z,7.86
2018-03-29T11:40:02.687Z,7.78
2018-03-29T11:42:30.063Z,7.47
2018-03-29T11:44:57.456Z,7.25
2018-03-29T11:47:24.834Z,7.27
2018-03-29T11:49:52.237Z,7.66
2018-03-29T11:52:19.606Z,7.80
2018-03-29T11:54:47.007Z,8.29
2018-03-29T11:57:14.423Z,8.67
2018-03-29T11:59:41.977Z,8.60
2018-03-29T12:02:09.363Z,8.80
2018-03-29T12:04:36.751Z,9.04
2018-03-29T12:07:04.126Z,9.26
2018-03-29T12:09:31.516Z,9.37
2018-03-29T12:11:58.955Z,9.34
2018-03-29T12:14:26.338Z,9.15
2018-03-29T12:16:53.710Z,8.90
2018-03-29T12:19:21.120Z,8.96
2018-03-29T12:21:48.498Z,8.81
2018-03-29T12:24:15.890Z,8.96
2018-03-29T12:26:43.281Z,9.08
2018-03-29T12:29:10.662Z,9.33
2018-03-29T12:31:38.097Z,9.62
2018-03-29T12:34:05.478Z,9.81
2018-03-29T12:36:32.874Z,10.02
2018-03-29T12:39:00.366Z,10.10
2018-03-29T12:41:27.763Z,10.39
2018-03-29T12:43:55.175Z,10.56
2018-03-29T12:46:22.574Z,10.63
2018-03-29T12:48:49.952Z,10.74
2018-03-29T12:51:17.452Z,10.75
2018-03-29T12:53:44.846Z,10.72
2018-03-29T12:56:22.082Z,10.96
2018-03-29T12:58:49.462Z,11.08
2018-03-29T13:01:16.922Z,11.08
2018-03-29T13:03:44.302Z,10.89
2018-03-29T13:06:11.703Z,10.85
2018-03-29T13:08:39.083Z,10.62
2018-03-29T13:11:06.466Z,10.69
2018-03-29T13:13:33.851Z,10.74
2018-03-29T13:16:01.244Z,10.84
2018-03-29T13:18:28.685Z,10.83
2018-03-29T13:20:56.134Z,11.10
2018-03-29T13:23:23.599Z,11.07
2018-03-29T13:25:50.995Z,11.18
2018-03-29T13:28:18.410Z,10.84
2018-03-29T13:30:45.803Z,10.81
2018-03-29T13:33:13.186Z,11.14
2018-03-29T13:35:40.587Z,11.26
2018-03-29T13:38:07.963Z,11.32
2018-03-29T13:40:35.345Z,11.36
2018-03-29T13:43:02.838Z,11.64
2018-03-29T13:45:30.227Z,11.42
2018-03-29T13:47:57.627Z,11.64
2018-03-29T13:50:25.107Z,11.86
2018-03-29T13:52:52.512Z,11.81
2018-03-29T13:55:19.893Z,11.95
2018-03-29T13:57:47.279Z,11.77
2018-03-29T14:00:14.671Z,12.01
2018-03-29T14:02:42.064Z,11.95
2018-03-29T14:05:09.542Z,11.94
2018-03-29T14:07:36.934Z,11.79
2018-03-29T14:10:04.310Z,11.77
2018-03-29T14:12:31.805Z,11.76
2018-03-29T14:14:59.183Z,11.84
2018-03-29T14:17:26.639Z,11.73
2018-03-29T14:19:54.079Z,11.49
2018-03-29T14:22:21.500Z,11.31
2018-03-29T14:24:48.891Z,11.08
2018-03-29T14:27:16.274Z,10.61
2018-03-29T14:29:43.707Z,10.74
2018-03-29T14:32:11.091Z,10.44
2018-03-29T14:34:38.483Z,10.30
2018-03-29T14:37:05.883Z,10.35
2018-03-29T14:39:33.322Z,10.19
2018-03-29T14:42:00.783Z,10.34
2018-03-29T14:44:28.174Z,10.40
2018-03-29T14:46:55.574Z,10.03
2018-03-29T14:49:22.951Z,10.03
2018-03-29T14:51:50.419Z,9.68
2018-03-29T14:54:17.854Z,9.58
2018-03-29T14:56:46.249Z,9.49
2018-03-29T14:59:13.691Z,9.21
2018-03-29T15:01:41.067Z,9.30
2018-03-29T15:04:08.451Z,9.26
2018-03-29T15:06:35.830Z,9.33
2018-03-29T15:09:03.214Z,9.29
2018-03-29T15:11:30.605Z,9.06
2018-03-29T15:13:58.068Z,8.98
2018-03-29T15:16:25.487Z,9.04
2018-03-29T15:18:52.870Z,8.78
2018-03-29T15:21:20.294Z,8.93
2018-03-29T15:23:47.686Z,8.98
2018-03-29T15:26:15.082Z,8.91
2018-03-29T15:28:42.562Z,9.12
2018-03-29T15:31:09.951Z,9.05
2018-03-29T15:33:37.341Z,9.09
2018-03-29T15:36:04.721Z,8.76
2018-03-29T15:38:32.102Z,8.99
2018-03-29T15:40:59.491Z,8.95
2018-03-29T15:43:26.870Z,8.99
2018-03-29T15:45:54.264Z,9.06
2018-03-29T15:48:21.663Z,8.92
2018-03-29T15:50:49.081Z,8.80
2018-03-29T15:53:16.426Z,8.74
2018-03-29T15:55:43.831Z,9.04
2018-03-29T15:58:11.215Z,9.09
2018-03-29T16:00:38.611Z,9.06
2018-03-29T16:03:05.992Z,8.98
2018-03-29T16:05:33.367Z,8.68
2018-03-29T16:08:00.759Z,8.60
2018-03-29T16:10:28.155Z,8.23
2018-03-29T16:12:55.572Z,8.13
2018-03-29T16:15:22.920Z,8.20
2018-03-29T16:17:50.315Z,8.15
2018-03-29T16:20:17.801Z,7.94
2018-03-29T16:22:45.178Z,7.82
2018-03-29T16:25:12.595Z,7.42
2018-03-29T16:27:39.988Z,7.45
2018-03-29T16:30:07.360Z,7.26
2018-03-29T16:32:34.755Z,7.04
2018-03-29T16:35:02.147Z,6.84
2018-03-29T16:37:29.532Z,6.96
2018-03-29T16:39:56.910Z,6.98
2018-03-29T16:42:24.296Z,6.78
2018-03-29T16:44:51.731Z,6.56
2018-03-29T16:47:19.119Z,6.72
2018-03-29T16:49:46.494Z,6.91
2018-03-29T16:52:14.110Z,7.02
2018-03-29T16:54:41.554Z,7.20
2018-03-29T16:57:08.939Z,7.38
2018-03-29T16:59:36.314Z,7.57
2018-03-29T17:02:03.741Z,7.59
2018-03-29T17:04:31.080Z,7.72
2018-03-29T17:06:58.460Z,7.50
2018-03-29T17:09:25.843Z,7.69
2018-03-29T17:11:53.227Z,7.70
2018-03-29T17:14:20.609Z,7.71
2018-03-29T17:16:48.044Z,7.78
2018-03-29T17:19:15.410Z,7.93
2018-03-29T17:21:42.866Z,7.86
2018-03-29T17:24:10.251Z,7.89
2018-03-29T17:26:37.678Z,8.02
2018-03-29T17:29:05.066Z,7.99
2018-03-29T17:31:32.486Z,7.74
2018-03-29T17:33:59.875Z,7.71
2018-03-29T17:36:27.298Z,7.68
2018-03-29T17:38:54.687Z,7.51
2018-03-29T17:41:22.063Z,7.66
2018-03-29T17:43:49.458Z,7.69
2018-03-29T17:46:16.835Z,7.77
2018-03-29T17:48:44.211Z,7.82
2018-03-29T17:51:11.594Z,7.89
2018-03-29T17:53:38.970Z,7.89
2018-03-29T17:56:06.369Z,7.83
2018-03-29T17:58:33.753Z,7.79
2018-03-29T18:01:01.247Z,7.69
2018-03-29T18:03:28.639Z,7.56
2018-03-29T18:05:56.048Z,7.51
2018-03-29T18:08:23.426Z,7.44
2018-03-29T18:10:50.813Z,7.39
2018-03-29T18:13:18.194Z,7.21
2018-03-29T18:15:45.594Z,7.09
2018-03-29T18:18:12.979Z,6.95
2018-03-29T18:20:40.388Z,6.79
2018-03-29T18:23:07.775Z,6.80
2018-03-29T18:25:35.200Z,6.79
2018-03-29T18:28:02.658Z,6.81
2018-03-29T18:30:30.046Z,6.87
2018-03-29T18:32:57.439Z,6.83
2018-03-29T18:35:24.836Z,6.72
2018-03-29T18:37:52.216Z,6.68
2018-03-29T18:40:19.605Z,6.76
2018-03-29T18:42:46.979Z,6.78
2018-03-29T18:45:14.382Z,6.78
2018-03-29T18:47:41.811Z,6.78
2018-03-29T18:50:09.199Z,6.85
2018-03-29T18:52:36.587Z,6.80
2018-03-29T18:55:04.064Z,6.74
2018-03-29T18:57:31.519Z,6.70
2018-03-29T18:59:58.898Z,6.62
2018-03-29T19:02:26.292Z,6.56
2018-03-29T19:04:53.666Z,6.36
2018-03-29T19:07:21.142Z,5.93
2018-03-29T19:09:48.607Z,6.09
2018-03-29T19:12:16.063Z,6.21
2018-03-29T19:14:43.518Z,6.23
2018-03-29T19:17:10.903Z,6.14
2018-03-29T19:19:38.284Z,6.16
2018-03-29T19:22:05.783Z,6.15
2018-03-29T19:24:33.166Z,6.04
2018-03-29T19:27:00.559Z,5.92
2018-03-29T19:29:27.941Z,5.91
2018-03-29T19:31:55.355Z,6.00
2018-03-29T19:34:22.746Z,6.11
2018-03-29T19:36:50.141Z,6.11
2018-03-29T19:39:17.514Z,6.11
2018-03-29T19:41:44.910Z,6.08
2018-03-29T19:44:12.282Z,6.05
2018-03-29T19:46:39.689Z,6.06
2018-03-29T19:49:07.076Z,6.03
2018-03-29T19:51:34.473Z,6.06
2018-03-29T19:54:01.959Z,5.98
2018-03-29T19:56:29.349Z,5.98
2018-03-29T19:58:56.772Z,5.94
2018-03-29T20:01:24.154Z,5.86
2018-03-29T20:03:51.563Z,5.76
2018-03-29T20:06:18.948Z,5.90
2018-03-29T20:08:46.359Z,5.87
2018-03-29T20:11:13.752Z,5.94
2018-03-29T20:13:41.155Z,5.86
2018-03-29T20:16:08.546Z,5.85
2018-03-29T20:18:35.965Z,5.64
2018-03-29T20:21:03.358Z,5.74
2018-03-29T20:23:30.770Z,5.66
2018-03-29T20:25:58.166Z,5.67
2018-03-29T20:28:25.582Z,5.69
2018-03-29T20:30:53.044Z,5.64
2018-03-29T20:33:20.442Z,5.64
2018-03-29T20:35:47.831Z,5.55
2018-03-29T20:38:15.234Z,5.40
2018-03-29T20:40:42.680Z,5.34
2018-03-29T20:43:10.067Z,5.33
2018-03-29T20:45:37.475Z,5.15
2018-03-29T20:48:04.990Z,5.21
2018-03-29T20:50:32.377Z,5.18
2018-03-29T20:52:59.794Z,5.11
2018-03-29T20:55:27.252Z,4.94
2018-03-29T20:57:54.655Z,4.94
2018-03-29T21:00:22.042Z,4.69
2018-03-29T21:02:49.442Z,4.85
2018-03-29T21:05:16.830Z,4.88
2018-03-29T21:07:44.223Z,4.72
2018-03-29T21:10:11.623Z,4.65
2018-03-29T21:12:40.122Z,4.64
2018-03-29T21:15:07.521Z,4.57
2018-03-29T21:17:34.987Z,4.58
2018-03-29T21:20:02.397Z,4.63
2018-03-29T21:22:29.885Z,4.65
2018-03-29T21:24:57.737Z,4.51
2018-03-29T21:27:25.379Z,4.49
2018-03-29T21:29:52.867Z,4.49
2018-03-29T21:32:20.323Z,4.52
2018-03-29T21:34:47.722Z,4.47
2018-03-29T21:37:15.144Z,4.34
2018-03-29T21:39:42.596Z,4.27
2018-03-29T21:42:10.042Z,4.32
2018-03-29T21:44:37.439Z,4.30
2018-03-29T21:47:04.839Z,3.89
2018-03-29T21:49:32.248Z,3.75
2018-03-29T21:51:59.643Z,3.94
2018-03-29T21:54:27.044Z,3.54
2018-03-29T21:56:54.441Z,3.65
2018-03-29T21:59:21.878Z,3.77
2018-03-29T22:01:49.280Z,3.76
2018-03-29T22:04:16.674Z,3.78
2018-03-29T22:06:44.147Z,3.79
2018-03-29T22:09:11.541Z,3.82
2018-03-29T22:11:38.972Z,3.86
2018-03-29T22:14:06.364Z,3.76
2018-03-29T22:16:33.763Z,3.78
2018-03-29T22:19:01.159Z,3.73
2018-03-29T22:21:28.555Z,3.75
2018-03-29T22:23:55.942Z,3.69
2018-03-29T22:26:23.390Z,3.69
2018-03-29T22:28:50.745Z,3.73
2018-03-29T22:31:18.140Z,3.66
2018-03-29T22:33:45.535Z,3.56
2018-03-29T22:36:13.029Z,3.40
2018-03-29T22:38:40.487Z,3.24
2018-03-29T22:41:07.890Z,3.27
2018-03-29T22:43:35.291Z,3.33
2018-03-29T22:46:02.700Z,3.22
2018-03-29T22:48:30.101Z,3.22
2018-03-29T22:50:57.508Z,3.32
2018-03-29T22:53:24.903Z,3.37
2018-03-29T22:55:52.356Z,3.32
2018-03-29T22:58:19.751Z,3.37
2018-03-29T23:00:47.156Z,3.36
2018-03-29T23:03:14.655Z,3.39
2018-03-29T23:05:42.054Z,3.08
2018-03-29T23:08:09.451Z,2.74
2018-03-29T23:10:36.866Z,2.78
2018-03-29T23:13:04.268Z,2.72
2018-03-29T23:15:31.707Z,2.59
2018-03-29T23:17:59.103Z,2.53
2018-03-29T23:20:26.506Z,2.47
2018-03-29T23:22:53.909Z,2.46
2018-03-29T23:25:21.419Z,2.23
2018-03-29T23:27:48.867Z,1.96
2018-03-29T23:30:16.284Z,2.23
2018-03-29T23:32:43.718Z,2.39
2018-03-29T23:35:11.150Z,2.44
2018-03-29T23:37:38.544Z,2.47
2018-03-29T23:40:05.937Z,2.55
2018-03-29T23:42:33.342Z,2.64
2018-03-29T23:45:01.678Z,2.60
2018-03-29T23:47:29.066Z,2.57
2018-03-29T23:49:56.462Z,2.65
2018-03-29T23:52:23.863Z,2.69
2018-03-29T23:54:51.254Z,2.72
2018-03-29T23:57:18.655Z,2.63
2018-03-29T23:59:46.055Z,2.74
